createdAt,value
2022-12-22T00:02:19.508Z,12.10
2022-12-22T00:05:06.802Z,11.70
2022-12-22T00:07:52.662Z,11.70
2022-12-22T00:10:37.915Z,11.80
2022-12-22T00:13:23.345Z,12.00
2022-12-22T00:16:09.047Z,11.80
2022-12-22T00:18:54.370Z,11.80
2022-12-22T00:21:39.412Z,11.80
2022-12-22T00:24:24.332Z,11.80
2022-12-22T00:27:09.361Z,11.80
2022-12-22T00:29:57.733Z,11.70
2022-12-22T00:32:43.923Z,11.50
2022-12-22T00:35:32.855Z,11.40
2022-12-22T00:38:18.020Z,11.40
2022-12-22T00:41:03.179Z,11.50
2022-12-22T00:43:48.389Z,11.40
2022-12-22T00:46:35.412Z,12.00
2022-12-22T00:49:20.768Z,12.20
2022-12-22T00:52:05.873Z,11.60
2022-12-22T00:54:50.895Z,11.70
2022-12-22T00:57:37.252Z,11.40
2022-12-22T01:00:25.328Z,11.40
2022-12-22T01:03:10.469Z,11.40
2022-12-22T01:05:56.021Z,11.50
2022-12-22T01:08:41.242Z,11.50
2022-12-22T01:11:26.554Z,11.50
2022-12-22T01:14:11.623Z,11.60
2022-12-22T01:16:56.604Z,11.50
2022-12-22T01:19:41.598Z,11.50
2022-12-22T01:22:30.084Z,11.50
2022-12-22T01:25:15.066Z,11.50
2022-12-22T01:28:00.128Z,11.60
2022-12-22T01:30:45.083Z,11.50
2022-12-22T01:33:31.224Z,11.50
2022-12-22T01:36:16.449Z,11.50
2022-12-22T01:39:01.539Z,11.60
2022-12-22T01:41:46.616Z,11.50
2022-12-22T01:44:34.093Z,11.60
2022-12-22T01:50:00.885Z,11.60
2022-12-22T01:52:50.709Z,11.50
2022-12-22T01:55:39.579Z,11.50
2022-12-22T01:58:28.992Z,11.40
2022-12-22T02:01:14.251Z,11.30
2022-12-22T02:03:59.861Z,11.30
2022-12-22T02:07:00.337Z,11.20
2022-12-22T02:09:50.023Z,11.20
2022-12-22T02:12:41.360Z,11.30
2022-12-22T02:15:34.577Z,11.30
2022-12-22T02:18:31.688Z,11.50
2022-12-22T02:21:24.196Z,11.40
2022-12-22T02:24:35.157Z,11.50
2022-12-22T02:27:20.330Z,11.50
2022-12-22T02:30:11.570Z,11.60
2022-12-22T02:33:05.172Z,11.70
2022-12-22T02:36:02.444Z,11.70
2022-12-22T02:38:57.402Z,11.80
2022-12-22T02:42:06.405Z,11.90
2022-12-22T02:45:10.044Z,11.90
2022-12-22T02:48:04.938Z,12.10
2022-12-22T02:51:00.814Z,12.00
2022-12-22T02:53:47.777Z,12.10
2022-12-22T02:56:33.128Z,12.20
2022-12-22T02:59:18.258Z,12.10
2022-12-22T03:02:05.322Z,12.20
2022-12-22T03:04:50.642Z,12.40
2022-12-22T03:07:35.609Z,12.40
2022-12-22T03:10:20.957Z,12.40
2022-12-22T03:13:05.997Z,12.40
2022-12-22T03:15:51.332Z,12.40
2022-12-22T03:18:36.612Z,12.50
2022-12-22T03:21:21.816Z,12.40
2022-12-22T03:24:07.021Z,12.50
2022-12-22T03:26:33.786Z,12.50
2022-12-22T03:29:00.476Z,12.60
2022-12-22T03:31:27.693Z,12.70
2022-12-22T03:33:54.567Z,12.70
2022-12-22T03:36:21.232Z,12.70
2022-12-22T03:38:47.914Z,12.70
2022-12-22T03:41:34.554Z,12.60
2022-12-22T03:44:27.936Z,12.60
2022-12-22T03:47:54.347Z,12.90
2022-12-22T03:50:27.868Z,12.80
2022-12-22T03:53:05.492Z,12.70
2022-12-22T03:55:38.574Z,12.70
2022-12-22T03:58:14.723Z,12.70
2022-12-22T04:00:47.034Z,12.70
2022-12-22T04:03:19.701Z,12.70
2022-12-22T04:05:54.687Z,12.70
2022-12-22T04:08:32.329Z,12.70
2022-12-22T04:11:25.459Z,12.70
2022-12-22T04:13:52.769Z,12.70
2022-12-22T04:16:25.328Z,12.70
2022-12-22T04:19:01.174Z,12.60
2022-12-22T04:21:43.058Z,12.70
2022-12-22T04:24:11.627Z,12.80
2022-12-22T04:26:38.706Z,12.70
2022-12-22T04:29:05.470Z,12.90
2022-12-22T04:31:32.230Z,12.80
2022-12-22T04:33:58.977Z,12.70
2022-12-22T04:36:25.674Z,12.60
2022-12-22T04:38:52.345Z,12.70
2022-12-22T04:41:19.010Z,12.80
2022-12-22T04:43:45.693Z,12.80
2022-12-22T04:46:12.472Z,12.70
2022-12-22T04:48:39.173Z,12.60
2022-12-22T04:51:06.062Z,12.70
2022-12-22T04:53:32.826Z,12.60
2022-12-22T04:56:05.348Z,12.70
2022-12-22T04:58:32.702Z,12.70
2022-12-22T05:01:09.233Z,12.70
2022-12-22T05:03:36.149Z,12.50
2022-12-22T05:06:03.010Z,12.80
2022-12-22T05:08:29.745Z,12.50
2022-12-22T05:10:56.416Z,12.50
2022-12-22T05:13:23.102Z,12.50
2022-12-22T05:15:49.799Z,12.60
2022-12-22T05:18:16.492Z,12.60
2022-12-22T05:20:43.171Z,12.50
2022-12-22T05:23:09.954Z,12.70
2022-12-22T05:25:36.641Z,12.50
2022-12-22T05:28:03.543Z,12.60
2022-12-22T05:30:30.231Z,12.70
2022-12-22T05:32:56.957Z,12.50
2022-12-22T05:35:23.637Z,12.60
2022-12-22T05:37:50.303Z,12.60
2022-12-22T05:40:17.092Z,12.50
2022-12-22T05:42:43.844Z,12.60
2022-12-22T05:45:14.917Z,12.60
2022-12-22T05:47:43.288Z,12.60
2022-12-22T05:50:11.304Z,12.70
2022-12-22T05:52:38.059Z,13.10
2022-12-22T05:55:05.748Z,12.70
2022-12-22T05:57:32.408Z,12.70
2022-12-22T05:59:59.088Z,12.80
2022-12-22T06:02:26.061Z,12.60
2022-12-22T06:04:52.875Z,12.60
2022-12-22T06:07:19.553Z,12.60
2022-12-22T06:09:46.225Z,12.60
2022-12-22T06:12:12.955Z,12.60
2022-12-22T06:14:39.825Z,12.50
2022-12-22T06:17:06.485Z,12.40
2022-12-22T06:19:33.161Z,12.30
2022-12-22T06:21:59.847Z,12.40
2022-12-22T06:24:26.728Z,12.50
2022-12-22T06:26:53.394Z,12.40
2022-12-22T06:29:20.125Z,12.70
2022-12-22T06:31:46.844Z,12.60
2022-12-22T06:34:13.738Z,12.50
2022-12-22T06:36:40.465Z,13.00
2022-12-22T06:39:07.239Z,12.80
2022-12-22T06:41:52.471Z,12.50
2022-12-22T06:44:19.217Z,12.50
2022-12-22T06:46:45.950Z,12.50
2022-12-22T06:49:12.688Z,12.50
2022-12-22T06:51:39.344Z,12.40
2022-12-22T06:54:06.080Z,12.40
2022-12-22T06:56:32.745Z,12.40
2022-12-22T06:58:59.508Z,12.60
2022-12-22T07:01:26.436Z,12.30
2022-12-22T07:03:53.333Z,12.40
2022-12-22T07:06:20.088Z,12.30
2022-12-22T07:08:47.152Z,12.40
2022-12-22T07:11:14.622Z,12.50
2022-12-22T07:13:41.291Z,12.60
2022-12-22T07:16:09.130Z,12.80
2022-12-22T07:18:41.207Z,12.70
2022-12-22T07:21:10.442Z,13.00
2022-12-22T07:23:37.976Z,12.40
2022-12-22T07:26:06.337Z,12.40
2022-12-22T07:28:35.257Z,12.30
2022-12-22T07:31:02.608Z,12.20
2022-12-22T07:33:29.436Z,12.20
2022-12-22T07:36:04.677Z,12.30
2022-12-22T07:38:33.199Z,12.30
2022-12-22T07:41:04.892Z,12.20
2022-12-22T07:43:32.248Z,12.40
2022-12-22T07:45:58.947Z,12.40
2022-12-22T07:48:44.297Z,12.50
2022-12-22T07:51:10.967Z,12.40
2022-12-22T07:53:39.908Z,12.40
2022-12-22T07:56:06.986Z,12.10
2022-12-22T07:58:33.654Z,11.80
2022-12-22T08:01:01.387Z,11.80
2022-12-22T08:03:28.566Z,11.80
2022-12-22T08:05:55.331Z,11.80
2022-12-22T08:08:22.057Z,11.60
2022-12-22T08:10:48.818Z,11.60
2022-12-22T08:13:15.574Z,11.60
2022-12-22T08:15:42.356Z,11.50
2022-12-22T08:18:09.115Z,11.50
2022-12-22T08:20:35.809Z,11.40
2022-12-22T08:23:02.487Z,11.60
2022-12-22T08:25:30.596Z,11.60
2022-12-22T08:27:57.844Z,11.60
2022-12-22T08:30:24.608Z,11.50
2022-12-22T08:32:51.767Z,11.60
2022-12-22T08:35:18.850Z,11.60
2022-12-22T08:37:46.122Z,11.50
2022-12-22T08:40:18.195Z,11.80
2022-12-22T08:42:45.981Z,11.70
2022-12-22T08:45:12.854Z,11.70
2022-12-22T08:47:39.848Z,11.80
2022-12-22T08:50:07.253Z,11.70
2022-12-22T08:52:33.981Z,11.70
2022-12-22T08:55:00.680Z,11.80
2022-12-22T08:57:27.387Z,11.70
2022-12-22T08:59:54.174Z,11.50
2022-12-22T09:02:20.950Z,11.60
2022-12-22T09:04:47.681Z,11.90
2022-12-22T09:07:14.538Z,11.70
2022-12-22T09:09:41.209Z,11.80
2022-12-22T09:12:08.079Z,12.00
2022-12-22T09:14:34.790Z,11.80
2022-12-22T09:17:01.535Z,11.70
2022-12-22T09:19:28.413Z,11.70
2022-12-22T09:21:55.603Z,11.80
2022-12-22T09:24:22.482Z,11.80
2022-12-22T09:26:49.244Z,11.80
2022-12-22T09:29:16.803Z,12.00
2022-12-22T09:31:43.829Z,11.90
2022-12-22T09:34:17.238Z,11.90
2022-12-22T09:36:45.210Z,11.80
2022-12-22T09:39:12.002Z,11.90
2022-12-22T09:41:53.180Z,11.80
2022-12-22T09:44:35.003Z,11.60
2022-12-22T09:47:03.922Z,11.60
2022-12-22T09:49:31.158Z,11.60
2022-12-22T09:52:00.090Z,11.60
2022-12-22T09:54:27.479Z,11.70
2022-12-22T09:56:54.139Z,11.60
2022-12-22T09:59:21.724Z,11.60
2022-12-22T10:02:00.751Z,11.60
2022-12-22T10:04:49.268Z,11.60
2022-12-22T10:07:27.141Z,11.50
2022-12-22T10:09:54.023Z,11.70
2022-12-22T10:12:23.437Z,11.70
2022-12-22T10:14:52.405Z,11.70
2022-12-22T10:17:34.146Z,11.80
2022-12-22T10:20:20.248Z,11.70
2022-12-22T10:22:54.473Z,11.80
2022-12-22T10:26:00.376Z,11.90
2022-12-22T10:28:27.184Z,11.90
2022-12-22T10:31:17.161Z,11.90
2022-12-22T10:33:47.592Z,11.90
2022-12-22T10:36:26.658Z,12.00
2022-12-22T10:38:58.102Z,12.00
2022-12-22T10:41:27.296Z,11.90
2022-12-22T10:44:09.755Z,12.10
2022-12-22T10:46:39.953Z,12.00
2022-12-22T10:52:30.122Z,12.20
2022-12-22T10:55:26.184Z,12.10
2022-12-22T10:58:09.101Z,12.10
2022-12-22T11:00:37.257Z,12.30
2022-12-22T11:03:07.025Z,12.40
2022-12-22T11:05:34.071Z,12.20
2022-12-22T11:08:17.070Z,12.30
2022-12-22T11:10:49.614Z,12.20
2022-12-22T11:13:23.247Z,12.60
2022-12-22T11:15:52.851Z,12.40
2022-12-22T11:18:50.702Z,12.30
2022-12-22T11:21:32.658Z,12.40
2022-12-22T11:24:06.118Z,12.50
2022-12-22T11:26:59.754Z,12.40
2022-12-22T11:29:36.231Z,12.30
2022-12-22T11:32:22.607Z,12.30
2022-12-22T11:35:00.552Z,12.20
2022-12-22T11:37:53.473Z,12.30
2022-12-22T11:40:41.906Z,12.30
2022-12-22T11:43:21.051Z,12.00
2022-12-22T11:46:21.806Z,12.10
2022-12-22T11:49:11.500Z,12.10
2022-12-22T11:52:13.733Z,12.10
2022-12-22T11:55:30.028Z,12.10
2022-12-22T11:58:34.222Z,12.00
2022-12-22T12:01:17.870Z,12.10
2022-12-22T12:03:53.035Z,12.00
2022-12-22T12:06:43.126Z,12.40
2022-12-22T12:09:53.672Z,12.00
2022-12-22T12:12:28.792Z,12.20
2022-12-22T12:15:21.246Z,12.20
2022-12-22T12:18:15.252Z,12.20
2022-12-22T12:21:21.571Z,12.10
2022-12-22T12:23:51.243Z,12.30
2022-12-22T12:26:23.646Z,12.20
2022-12-22T12:29:14.141Z,12.10
2022-12-22T12:31:54.176Z,12.60
2022-12-22T12:34:21.940Z,12.30
2022-12-22T12:37:00.523Z,12.30
2022-12-22T12:39:41.121Z,12.20
2022-12-22T12:42:26.823Z,12.30
2022-12-22T12:44:54.237Z,12.40
2022-12-22T12:47:32.447Z,12.20
2022-12-22T12:50:05.491Z,12.50
2022-12-22T12:52:55.438Z,12.30
2022-12-22T12:55:40.263Z,12.10
2022-12-22T12:58:11.829Z,12.30
2022-12-22T13:00:45.219Z,12.30
2022-12-22T13:06:49.429Z,12.20
2022-12-22T13:12:53.385Z,12.20
2022-12-22T13:15:35.475Z,12.00
2022-12-22T13:18:33.826Z,12.20
2022-12-22T13:21:50.312Z,12.20
2022-12-22T13:26:44.097Z,12.10
2022-12-22T13:29:22.922Z,12.10
2022-12-22T13:31:57.952Z,12.40
2022-12-22T13:37:43.230Z,12.10
2022-12-22T13:40:17.194Z,12.10
2022-12-22T13:42:49.763Z,12.10
2022-12-22T13:45:31.569Z,12.00
2022-12-22T13:48:00.766Z,12.20
2022-12-22T13:50:37.723Z,12.10
2022-12-22T13:53:07.199Z,12.60
2022-12-22T13:55:34.188Z,12.10
2022-12-22T13:58:12.825Z,12.10
2022-12-22T14:00:39.544Z,12.00
2022-12-22T14:03:41.314Z,12.30
2022-12-22T14:06:03.109Z,12.10
2022-12-22T14:08:29.823Z,12.30
2022-12-22T14:10:56.496Z,12.20
2022-12-22T14:13:32.782Z,12.10
2022-12-22T14:16:01.736Z,12.10
2022-12-22T14:18:29.273Z,12.20
2022-12-22T14:20:56.553Z,12.10
2022-12-22T14:23:38.889Z,12.10
2022-12-22T14:26:06.484Z,12.10
2022-12-22T14:28:50.316Z,12.20
2022-12-22T14:31:18.036Z,12.00
2022-12-22T14:33:56.297Z,12.00
2022-12-22T14:36:26.766Z,12.00
2022-12-22T14:38:55.970Z,11.90
2022-12-22T14:41:44.144Z,12.00
2022-12-22T14:44:23.108Z,12.10
2022-12-22T14:47:03.889Z,11.80
2022-12-22T14:49:30.712Z,11.80
2022-12-22T14:52:07.373Z,11.70
2022-12-22T14:54:34.533Z,11.80
2022-12-22T14:57:10.078Z,11.70
2022-12-22T14:59:41.839Z,11.90
2022-12-22T15:02:26.883Z,11.80
2022-12-22T15:05:39.097Z,12.00
2022-12-22T15:08:09.222Z,11.80
2022-12-22T15:10:43.859Z,12.10
2022-12-22T15:13:20.659Z,11.90
2022-12-22T15:15:47.329Z,11.70
2022-12-22T15:18:15.077Z,11.80
2022-12-22T15:20:42.056Z,11.70
2022-12-22T15:23:13.973Z,11.70
2022-12-22T15:25:40.655Z,12.00
2022-12-22T15:28:07.401Z,11.80
2022-12-22T15:30:34.213Z,11.70
2022-12-22T15:33:00.961Z,11.80
2022-12-22T15:35:32.409Z,11.80
2022-12-22T15:37:59.705Z,11.80
2022-12-22T15:40:27.258Z,11.80
2022-12-22T15:42:54.088Z,11.90
2022-12-22T15:45:22.032Z,11.90
2022-12-22T15:47:51.502Z,12.00
2022-12-22T15:51:07.439Z,12.00
2022-12-22T15:53:51.412Z,12.10
2022-12-22T15:56:26.654Z,11.90
2022-12-22T15:58:53.570Z,12.10
2022-12-22T16:01:24.587Z,11.90
2022-12-22T16:04:13.518Z,12.00
2022-12-22T16:07:13.284Z,12.10
2022-12-22T16:09:55.832Z,12.30
2022-12-22T16:12:28.857Z,12.10
2022-12-22T16:15:33.779Z,12.10
2022-12-22T16:18:48.915Z,12.20
2022-12-22T16:28:25.355Z,11.90
2022-12-22T16:31:39.933Z,12.00
2022-12-22T16:34:12.239Z,11.80
2022-12-22T16:36:39.054Z,11.80
2022-12-22T16:39:05.823Z,11.70
2022-12-22T16:41:32.607Z,11.90
2022-12-22T16:44:05.690Z,12.00
2022-12-22T16:46:35.602Z,12.00
2022-12-22T16:49:02.317Z,11.90
2022-12-22T16:51:33.741Z,12.10
2022-12-22T16:54:01.283Z,12.10
2022-12-22T16:56:30.159Z,12.00
2022-12-22T16:58:57.072Z,12.10
2022-12-22T17:01:53.533Z,12.30
2022-12-22T17:04:23.369Z,12.20
2022-12-22T17:06:51.204Z,12.10
2022-12-22T17:09:21.564Z,12.20
2022-12-22T17:11:48.778Z,12.20
2022-12-22T17:14:17.273Z,12.10
2022-12-22T17:16:43.919Z,11.90
2022-12-22T17:19:11.555Z,11.90
2022-12-22T17:21:38.305Z,11.80
2022-12-22T17:24:05.201Z,11.90
2022-12-22T17:26:33.514Z,11.60
2022-12-22T17:29:00.445Z,11.90
2022-12-22T17:31:27.164Z,11.70
2022-12-22T17:33:53.926Z,11.80
2022-12-22T17:36:31.633Z,11.70
2022-12-22T17:38:58.763Z,11.70
2022-12-22T17:41:25.543Z,11.70
2022-12-22T17:43:52.210Z,11.70
2022-12-22T17:46:21.486Z,11.80
2022-12-22T17:48:48.870Z,11.80
2022-12-22T17:51:27.251Z,11.80
2022-12-22T17:53:54.866Z,11.70
2022-12-22T17:56:23.671Z,11.60
2022-12-22T17:58:50.538Z,11.90
2022-12-22T18:01:29.242Z,11.70
2022-12-22T18:03:56.561Z,11.80
2022-12-22T18:06:26.521Z,11.80
2022-12-22T18:08:54.575Z,11.90
2022-12-22T18:11:22.240Z,11.60
2022-12-22T18:13:49.063Z,11.70
2022-12-22T18:16:17.647Z,11.70
2022-12-22T18:18:44.792Z,11.70
2022-12-22T18:21:21.192Z,12.00
2022-12-22T18:23:50.639Z,11.80
2022-12-22T18:26:29.683Z,11.80
2022-12-22T18:28:57.015Z,11.70
2022-12-22T18:31:24.071Z,11.80
2022-12-22T18:33:51.551Z,11.90
2022-12-22T18:36:30.976Z,11.90
2022-12-22T18:38:58.885Z,11.90
2022-12-22T18:41:26.825Z,11.90
2022-12-22T18:43:53.772Z,12.00
2022-12-22T18:46:20.648Z,11.80
2022-12-22T18:48:48.092Z,11.80
2022-12-22T18:51:19.992Z,11.80
2022-12-22T18:53:47.210Z,11.60
2022-12-22T18:56:14.301Z,11.50
2022-12-22T18:58:41.489Z,11.50
2022-12-22T19:01:17.101Z,11.30
2022-12-22T19:03:45.460Z,11.40
2022-12-22T19:06:17.949Z,11.20
2022-12-22T19:08:47.097Z,11.30
2022-12-22T19:11:15.869Z,11.20
2022-12-22T19:13:45.224Z,11.20
2022-12-22T19:16:17.228Z,11.20
2022-12-22T19:18:44.283Z,11.00
2022-12-22T19:21:13.273Z,11.10
2022-12-22T19:23:39.988Z,11.10
2022-12-22T19:26:09.241Z,11.10
2022-12-22T19:28:41.490Z,11.20
2022-12-22T19:31:10.179Z,11.00
2022-12-22T19:33:43.627Z,11.10
2022-12-22T19:36:28.071Z,11.30
2022-12-22T19:39:03.496Z,10.90
2022-12-22T19:41:49.093Z,11.10
2022-12-22T19:44:15.680Z,10.90
2022-12-22T19:46:42.343Z,10.90
2022-12-22T19:49:15.224Z,11.00
2022-12-22T19:51:41.978Z,11.00
2022-12-22T19:54:08.634Z,11.00
2022-12-22T19:56:36.259Z,10.90
2022-12-22T19:59:05.403Z,10.80
2022-12-22T20:01:32.160Z,10.80
2022-12-22T20:03:58.991Z,10.80
2022-12-22T20:06:25.646Z,11.30
2022-12-22T20:08:52.357Z,11.10
2022-12-22T20:11:20.203Z,11.30
2022-12-22T20:13:47.547Z,10.90
2022-12-22T20:16:16.237Z,10.90
2022-12-22T20:18:43.981Z,11.10
2022-12-22T20:21:15.657Z,10.90
2022-12-22T20:23:42.309Z,10.90
2022-12-22T20:26:14.919Z,11.00
2022-12-22T20:28:41.608Z,11.40
2022-12-22T20:31:12.100Z,11.30
2022-12-22T20:33:38.787Z,11.20
2022-12-22T20:36:25.004Z,11.20
2022-12-22T20:38:54.228Z,11.40
2022-12-22T20:41:21.671Z,11.20
2022-12-22T20:43:49.080Z,11.00
2022-12-22T20:46:17.208Z,11.40
2022-12-22T20:48:49.796Z,11.40
2022-12-22T20:51:18.752Z,11.30
2022-12-22T20:53:46.348Z,11.20
2022-12-22T20:56:19.530Z,11.40
2022-12-22T20:58:46.529Z,11.20
2022-12-22T21:01:13.318Z,11.00
2022-12-22T21:03:40.155Z,11.20
2022-12-22T21:06:17.470Z,11.00
2022-12-22T21:08:44.177Z,11.10
2022-12-22T21:11:10.910Z,11.50
2022-12-22T21:13:37.573Z,11.20
2022-12-22T21:16:04.457Z,11.10
2022-12-22T21:18:31.165Z,10.90
2022-12-22T21:20:57.837Z,11.20
2022-12-22T21:23:24.497Z,11.00
2022-12-22T21:25:52.842Z,11.10
2022-12-22T21:28:32.827Z,11.70
2022-12-22T21:31:00.057Z,11.00
2022-12-22T21:33:26.791Z,10.90
2022-12-22T21:35:54.393Z,11.20
2022-12-22T21:38:23.132Z,10.80
2022-12-22T21:40:49.971Z,11.10
2022-12-22T21:43:16.910Z,11.50
2022-12-22T21:45:44.670Z,11.50
2022-12-22T21:48:13.238Z,11.30
2022-12-22T21:50:40.507Z,11.00
2022-12-22T21:53:07.259Z,11.30
2022-12-22T21:55:38.264Z,11.50
2022-12-22T21:58:06.225Z,11.20
2022-12-22T22:00:33.737Z,11.30
2022-12-22T22:03:02.025Z,11.50
2022-12-22T22:05:33.668Z,11.20
2022-12-22T22:08:01.308Z,11.40
2022-12-22T22:10:33.522Z,11.20
2022-12-22T22:13:00.767Z,11.40
2022-12-22T22:15:28.416Z,11.30
2022-12-22T22:17:56.279Z,11.30
2022-12-22T22:20:27.909Z,11.30
2022-12-22T22:22:56.012Z,11.50
2022-12-22T22:25:22.997Z,11.40
2022-12-22T22:27:49.917Z,11.20
2022-12-22T22:30:21.459Z,11.40
2022-12-22T22:32:48.776Z,11.50
2022-12-22T22:35:16.264Z,11.40
2022-12-22T22:37:44.411Z,11.50
2022-12-22T22:40:13.605Z,11.60
2022-12-22T22:42:40.922Z,11.30
2022-12-22T22:45:08.435Z,11.50
2022-12-22T22:47:35.266Z,11.50
2022-12-22T22:50:06.799Z,11.50
2022-12-22T22:52:33.838Z,11.40
2022-12-22T22:55:00.658Z,11.40
2022-12-22T22:57:27.565Z,11.40
2022-12-22T22:59:54.315Z,11.50
2022-12-22T23:02:21.092Z,11.60
2022-12-22T23:04:47.984Z,11.60
2022-12-22T23:07:14.665Z,11.60
2022-12-22T23:09:41.366Z,11.60
2022-12-22T23:12:08.087Z,11.80
2022-12-22T23:14:34.792Z,11.80
2022-12-22T23:17:01.481Z,11.60
2022-12-22T23:19:28.283Z,11.70
2022-12-22T23:21:54.953Z,11.70
2022-12-22T23:24:21.671Z,11.80
2022-12-22T23:26:48.528Z,11.80
2022-12-22T23:29:15.441Z,11.90
2022-12-22T23:31:42.212Z,12.00
2022-12-22T23:34:10.997Z,11.80
2022-12-22T23:36:37.698Z,11.90
2022-12-22T23:39:04.483Z,11.90
2022-12-22T23:41:31.210Z,11.90
2022-12-22T23:43:57.933Z,12.00
2022-12-22T23:46:24.710Z,12.30
2022-12-22T23:48:57.320Z,12.10
2022-12-22T23:51:29.734Z,12.20
2022-12-22T23:53:58.297Z,12.30
2022-12-22T23:56:25.133Z,12.20
2022-12-22T23:58:54.850Z,12.20
